createdAt,value
2022-11-04T00:04:59.210Z,10.68
2022-11-04T00:10:00.836Z,11.38
2022-11-04T00:15:22.464Z,10.77
2022-11-04T00:20:42.632Z,10.18
2022-11-04T00:26:02.976Z,9.75
2022-11-04T00:31:25.804Z,9.75
2022-11-04T00:36:27.567Z,9.32
2022-11-04T00:41:30.643Z,9.30
2022-11-04T00:46:34.056Z,8.27
2022-11-04T00:51:35.926Z,8.55
2022-11-04T00:56:38.540Z,8.75
2022-11-04T01:01:40.698Z,8.02
2022-11-04T01:06:42.454Z,8.15
2022-11-04T01:11:44.249Z,8.73
2022-11-04T01:16:46.025Z,8.13
2022-11-04T01:21:50.909Z,8.40
2022-11-04T01:26:52.541Z,8.73
2022-11-04T01:31:54.246Z,7.78
2022-11-04T01:36:55.913Z,8.98
2022-11-04T01:41:57.633Z,8.18
2022-11-04T01:46:59.404Z,8.60
2022-11-04T01:52:09.027Z,8.00
2022-11-04T01:57:17.289Z,8.52
2022-11-04T02:02:19.014Z,9.15
2022-11-04T02:07:21.331Z,8.68
2022-11-04T02:12:41.791Z,8.25
2022-11-04T02:18:05.562Z,7.75
2022-11-04T02:23:45.438Z,8.18
2022-11-04T02:29:24.451Z,6.68
2022-11-04T02:35:13.762Z,7.00
2022-11-04T02:40:29.971Z,6.38
2022-11-04T02:45:35.348Z,6.15
2022-11-04T02:50:47.328Z,5.85
2022-11-04T02:55:53.894Z,5.60
2022-11-04T03:00:57.633Z,5.68
2022-11-04T03:06:01.621Z,5.93
2022-11-04T03:11:15.862Z,6.10
2022-11-04T03:16:29.258Z,6.35
2022-11-04T03:21:35.240Z,6.25
2022-11-04T03:26:49.283Z,6.88
2022-11-04T03:32:06.163Z,6.93
2022-11-04T03:37:07.913Z,6.55
2022-11-04T03:42:21.860Z,6.22
2022-11-04T03:47:29.340Z,6.85
2022-11-04T03:52:31.386Z,7.60
2022-11-04T03:57:51.136Z,6.78
2022-11-04T04:03:02.390Z,7.10
2022-11-04T04:08:16.260Z,8.50
2022-11-04T04:13:47.401Z,7.97
2022-11-04T04:19:08.544Z,7.55
2022-11-04T04:24:30.839Z,7.75
2022-11-04T04:29:32.940Z,7.63
2022-11-04T04:34:34.760Z,8.02
2022-11-04T04:40:05.467Z,7.53
2022-11-04T04:45:08.063Z,7.68
2022-11-04T04:50:11.631Z,7.93
2022-11-04T04:55:14.047Z,8.07
2022-11-04T05:00:20.827Z,7.95
2022-11-04T05:05:23.613Z,8.45
2022-11-04T05:10:25.277Z,8.18
2022-11-04T05:15:28.172Z,7.65
2022-11-04T05:20:30.546Z,8.23
2022-11-04T05:25:32.200Z,7.97
2022-11-04T05:30:34.763Z,8.57
2022-11-04T05:35:36.394Z,8.88
2022-11-04T05:40:38.118Z,7.32
2022-11-04T05:45:39.754Z,8.18
2022-11-04T05:50:41.776Z,6.85
2022-11-04T05:55:44.784Z,8.75
2022-11-04T06:00:46.396Z,8.90
2022-11-04T06:05:48.017Z,7.22
2022-11-04T06:10:49.866Z,7.53
2022-11-04T06:15:51.509Z,7.20
2022-11-04T06:21:26.855Z,7.55
2022-11-04T06:26:30.811Z,7.55
2022-11-04T06:31:32.534Z,7.43
2022-11-04T06:36:34.194Z,9.27
2022-11-04T06:41:35.851Z,8.85
2022-11-04T06:46:40.377Z,8.45
2022-11-04T06:51:42.228Z,9.70
2022-11-04T06:56:44.733Z,9.80
2022-11-04T07:01:47.565Z,10.35
2022-11-04T07:06:49.442Z,8.82
2022-11-04T07:11:51.118Z,8.05
2022-11-04T07:16:52.745Z,7.85
2022-11-04T07:21:54.411Z,7.22
2022-11-04T07:26:56.343Z,7.97
2022-11-04T07:31:58.030Z,7.35
2022-11-04T07:36:59.695Z,6.90
2022-11-04T07:42:01.342Z,8.25
2022-11-04T07:47:03.087Z,7.15
2022-11-04T07:52:04.991Z,7.22
2022-11-04T07:57:06.604Z,5.55
2022-11-04T08:02:12.254Z,5.30
2022-11-04T08:07:14.086Z,4.88
2022-11-04T08:12:15.776Z,5.00
2022-11-04T08:17:17.593Z,5.57
2022-11-04T08:22:19.288Z,5.28
2022-11-04T08:27:20.976Z,5.32
2022-11-04T08:32:22.738Z,4.50
2022-11-04T08:37:24.450Z,4.88
2022-11-04T08:42:26.279Z,4.53
2022-11-04T08:47:28.019Z,4.40
2022-11-04T08:52:29.678Z,3.83
2022-11-04T08:57:31.656Z,3.65
2022-11-04T09:02:33.279Z,3.15
2022-11-04T09:07:37.475Z,2.50
2022-11-04T09:12:39.112Z,2.92
2022-11-04T09:17:40.948Z,2.38
2022-11-04T09:22:45.740Z,2.22
2022-11-04T09:27:47.742Z,2.47
2022-11-04T09:32:52.736Z,2.30
2022-11-04T09:37:55.086Z,2.17
2022-11-04T09:43:34.515Z,2.40
2022-11-04T09:48:56.513Z,2.05
2022-11-04T09:54:04.490Z,1.88
2022-11-04T09:59:06.641Z,2.20
2022-11-04T10:04:31.321Z,2.50
2022-11-04T10:09:44.563Z,2.20
2022-11-04T10:15:03.021Z,2.13
2022-11-04T10:20:24.941Z,2.40
2022-11-04T10:25:53.185Z,2.50
2022-11-04T10:30:55.907Z,2.33
2022-11-04T10:36:01.979Z,2.53
2022-11-04T10:41:17.729Z,2.40
2022-11-04T10:46:40.835Z,2.30
2022-11-04T10:51:42.551Z,2.45
2022-11-04T10:56:50.143Z,2.17
2022-11-04T11:01:54.579Z,2.60
2022-11-04T11:06:58.446Z,2.60
2022-11-04T11:12:29.398Z,2.00
2022-11-04T11:17:38.405Z,2.08
2022-11-04T11:22:43.241Z,1.80
2022-11-04T11:27:50.663Z,2.13
2022-11-04T11:32:58.797Z,1.70
2022-11-04T11:38:04.064Z,1.90
2022-11-04T11:43:06.088Z,1.83
2022-11-04T11:48:48.069Z,2.20
2022-11-04T11:54:17.299Z,2.22
2022-11-04T12:10:52.345Z,2.10
2022-11-04T12:16:14.170Z,2.58
2022-11-04T12:21:36.324Z,3.28
2022-11-04T12:26:53.238Z,2.35
2022-11-04T12:32:03.877Z,2.28
2022-11-04T12:37:41.336Z,1.92
2022-11-04T12:42:42.908Z,1.63
2022-11-04T12:47:47.508Z,1.98
2022-11-04T12:53:03.654Z,1.77
2022-11-04T12:58:20.404Z,1.65
2022-11-04T13:03:30.191Z,1.98
2022-11-04T13:08:44.469Z,2.00
2022-11-04T13:13:46.184Z,1.73
2022-11-04T13:18:49.586Z,2.25
2022-11-04T13:24:30.387Z,1.85
2022-11-04T13:29:34.696Z,1.67
2022-11-04T13:35:17.757Z,1.75
2022-11-04T13:40:24.261Z,1.80
2022-11-04T13:45:25.971Z,1.70
2022-11-04T13:50:29.028Z,1.85
2022-11-04T13:55:30.706Z,1.65
2022-11-04T14:00:37.493Z,1.70
2022-11-04T14:05:42.046Z,1.85
2022-11-04T14:10:49.532Z,2.05
2022-11-04T14:16:11.046Z,2.10
2022-11-04T14:21:13.937Z,3.65
2022-11-04T14:26:21.736Z,2.17
2022-11-04T14:31:40.584Z,2.20
2022-11-04T14:36:42.462Z,2.08
2022-11-04T14:42:04.611Z,1.80
2022-11-04T14:47:29.797Z,2.47
2022-11-04T14:52:40.356Z,1.95
2022-11-04T14:57:53.925Z,2.00
2022-11-04T15:03:45.570Z,2.00
2022-11-04T15:08:41.268Z,1.80
2022-11-04T15:13:49.315Z,1.98
2022-11-04T15:18:52.643Z,2.28
2022-11-04T15:23:56.365Z,1.90
2022-11-04T15:29:00.550Z,2.10
2022-11-04T15:34:08.131Z,2.30
2022-11-04T15:39:20.229Z,2.17
2022-11-04T15:44:28.219Z,2.60
2022-11-04T15:49:32.587Z,2.70
2022-11-04T15:54:43.128Z,2.60
2022-11-04T16:00:17.492Z,3.05
2022-11-04T16:05:39.910Z,2.97
2022-11-04T16:10:41.803Z,3.47
2022-11-04T16:15:48.339Z,3.13
2022-11-04T16:20:53.240Z,3.08
2022-11-04T16:25:59.414Z,3.65
2022-11-04T16:31:04.572Z,3.63
2022-11-04T16:36:13.887Z,3.70
2022-11-04T16:41:15.533Z,4.30
2022-11-04T16:46:17.827Z,4.70
2022-11-04T16:51:21.877Z,4.45
2022-11-04T16:56:24.981Z,5.05
2022-11-04T17:01:27.162Z,5.75
2022-11-04T17:06:28.875Z,7.65
2022-11-04T17:11:30.519Z,7.38
2022-11-04T17:16:32.156Z,8.25
2022-11-04T17:21:34.113Z,10.38
2022-11-04T17:26:35.746Z,11.20
2022-11-04T17:31:37.632Z,7.85
2022-11-04T17:36:39.309Z,7.85
2022-11-04T17:41:59.867Z,8.30
2022-11-04T17:47:01.607Z,8.65
2022-11-04T17:52:03.278Z,8.02
2022-11-04T17:57:05.084Z,7.63
2022-11-04T18:02:07.242Z,9.15
2022-11-04T18:07:09.003Z,11.90
2022-11-04T18:12:29.139Z,9.27
2022-11-04T18:17:30.795Z,9.25
2022-11-04T18:22:32.427Z,9.95
2022-11-04T18:27:34.376Z,11.07
2022-11-04T18:32:36.010Z,8.55
2022-11-04T18:37:38.442Z,7.20
2022-11-04T18:42:41.499Z,7.50
2022-11-04T18:47:43.130Z,8.50
2022-11-04T18:52:44.775Z,8.07
2022-11-04T18:57:46.426Z,7.97
2022-11-04T19:02:48.331Z,7.25
2022-11-04T19:07:50.142Z,7.40
2022-11-04T19:13:10.426Z,11.05
2022-11-04T19:18:12.374Z,11.30
2022-11-04T19:23:14.103Z,10.73
2022-11-04T19:33:37.923Z,9.45
2022-11-04T19:38:39.730Z,9.25
2022-11-04T19:43:41.350Z,8.35
2022-11-04T19:48:42.967Z,8.65
2022-11-04T19:53:44.639Z,8.50
2022-11-04T19:58:46.655Z,7.95
2022-11-04T20:03:48.454Z,8.02
2022-11-04T20:08:51.707Z,8.50
2022-11-04T20:13:53.424Z,7.97
2022-11-04T20:19:01.397Z,7.30
2022-11-04T20:24:09.111Z,7.18
2022-11-04T20:29:11.288Z,7.20
2022-11-04T20:34:14.125Z,7.78
2022-11-04T20:39:18.993Z,7.13
2022-11-04T20:44:21.926Z,7.75
2022-11-04T20:49:23.661Z,7.32
2022-11-04T20:54:26.735Z,7.72
2022-11-04T20:59:28.507Z,6.85
2022-11-04T21:04:35.788Z,6.95
2022-11-04T21:09:37.949Z,7.03
2022-11-04T21:14:39.786Z,7.47
2022-11-04T21:19:41.521Z,7.20
2022-11-04T21:24:43.167Z,7.93
2022-11-04T21:29:46.057Z,7.35
2022-11-04T21:34:47.719Z,7.30
2022-11-04T21:39:49.461Z,8.18
2022-11-04T21:44:51.215Z,7.82
2022-11-04T21:49:53.072Z,8.40
2022-11-04T21:54:54.851Z,8.43
2022-11-04T21:59:56.573Z,8.45
2022-11-04T22:04:58.268Z,8.98
2022-11-04T22:10:00.072Z,7.75
2022-11-04T22:15:01.819Z,9.05
2022-11-04T22:20:04.682Z,8.68
2022-11-04T22:25:07.677Z,8.35
2022-11-04T22:30:10.141Z,8.13
2022-11-04T22:35:11.932Z,8.77
2022-11-04T22:40:13.680Z,8.73
2022-11-04T22:45:16.843Z,8.43
2022-11-04T22:50:18.921Z,8.82
2022-11-04T22:55:20.607Z,8.70
2022-11-04T23:00:22.376Z,9.77
2022-11-04T23:05:27.178Z,8.98
2022-11-04T23:10:48.877Z,8.73
2022-11-04T23:16:09.711Z,9.48
2022-11-04T23:21:32.879Z,9.50
2022-11-04T23:26:34.564Z,9.25
2022-11-04T23:31:36.201Z,8.48
2022-11-04T23:36:56.386Z,9.65
2022-11-04T23:42:16.442Z,9.40
2022-11-04T23:47:36.574Z,9.35
2022-11-04T23:52:56.986Z,9.15
2022-11-04T23:58:17.334Z,9.73
